createdAt,value
2023-03-08T00:01:16.774Z,7.17
2023-03-08T00:03:43.673Z,10.17
2023-03-08T00:06:18.152Z,6.50
2023-03-08T00:11:17.695Z,10.83
2023-03-08T00:13:44.365Z,5.33
2023-03-08T00:16:14.382Z,7.60
2023-03-08T00:18:43.914Z,7.60
2023-03-08T00:21:17.641Z,11.67
2023-03-08T00:23:48.031Z,8.38
2023-03-08T00:26:15.005Z,9.23
2023-03-08T00:28:46.412Z,7.40
2023-03-08T00:31:14.108Z,7.13
2023-03-08T00:33:40.856Z,9.07
2023-03-08T00:36:11.996Z,6.57
2023-03-08T00:38:41.372Z,7.47
2023-03-08T00:41:08.601Z,6.37
2023-03-08T00:43:35.421Z,7.73
2023-03-08T00:46:04.508Z,7.73
2023-03-08T00:48:31.831Z,7.67
2023-03-08T00:50:58.458Z,5.83
2023-03-08T00:53:25.386Z,6.37
2023-03-08T00:55:54.264Z,7.80
2023-03-08T00:58:21.264Z,5.00
2023-03-08T01:00:51.016Z,6.57
2023-03-08T01:03:18.757Z,5.60
2023-03-08T01:05:50.233Z,7.73
2023-03-08T01:08:17.930Z,6.50
2023-03-08T01:10:49.789Z,6.33
2023-03-08T01:13:17.413Z,6.97
2023-03-08T01:15:44.268Z,6.03
2023-03-08T01:18:11.138Z,7.23
2023-03-08T01:20:37.809Z,5.37
2023-03-08T01:23:04.964Z,7.77
2023-03-08T01:25:31.708Z,6.53
2023-03-08T01:27:58.420Z,5.67
2023-03-08T01:30:25.031Z,5.73
2023-03-08T01:32:51.669Z,5.20
2023-03-08T01:35:18.408Z,5.10
2023-03-08T01:37:45.019Z,11.97
2023-03-08T01:40:16.123Z,5.00
2023-03-08T01:42:42.741Z,5.40
2023-03-08T01:45:46.971Z,4.37
2023-03-08T01:48:15.247Z,3.83
2023-03-08T01:50:43.294Z,4.53
2023-03-08T01:53:09.903Z,6.77
2023-03-08T01:55:36.559Z,6.07
2023-03-08T01:58:03.175Z,5.90
2023-03-08T02:00:29.807Z,7.77
2023-03-08T02:03:05.147Z,5.53
2023-03-08T02:05:31.761Z,6.73
2023-03-08T02:07:58.521Z,4.57
2023-03-08T02:10:25.810Z,6.93
2023-03-08T02:12:52.435Z,4.07
2023-03-08T02:15:20.332Z,8.33
2023-03-08T02:17:47.340Z,5.63
2023-03-08T02:20:32.458Z,6.57
2023-03-08T02:23:11.204Z,6.27
2023-03-08T02:25:38.374Z,10.27
2023-03-08T02:28:06.023Z,8.77
2023-03-08T02:30:35.716Z,7.97
2023-03-08T02:33:02.799Z,8.53
2023-03-08T02:35:30.258Z,8.93
2023-03-08T02:37:56.867Z,8.23
2023-03-08T02:40:23.467Z,8.43
2023-03-08T02:42:52.859Z,11.13
2023-03-08T02:45:19.963Z,10.50
2023-03-08T02:47:46.559Z,10.07
2023-03-08T02:50:13.171Z,9.53
2023-03-08T02:52:39.761Z,15.63
2023-03-08T02:55:06.961Z,11.63
2023-03-08T02:57:33.563Z,9.60
2023-03-08T03:00:00.200Z,10.87
2023-03-08T03:02:27.153Z,10.43
2023-03-08T03:04:53.795Z,11.27
2023-03-08T03:07:20.447Z,10.53
2023-03-08T03:09:47.063Z,9.87
2023-03-08T03:12:13.644Z,11.20
2023-03-08T03:14:40.282Z,10.43
2023-03-08T03:17:06.884Z,11.37
2023-03-08T03:19:33.821Z,17.03
2023-03-08T03:22:00.474Z,10.47
2023-03-08T03:24:27.067Z,9.87
2023-03-08T03:26:53.652Z,12.23
2023-03-08T03:29:20.248Z,11.40
2023-03-08T03:31:48.584Z,10.23
2023-03-08T03:34:15.342Z,14.73
2023-03-08T03:36:41.918Z,15.17
2023-03-08T03:39:08.577Z,13.27
2023-03-08T03:41:35.301Z,10.17
2023-03-08T03:44:01.942Z,11.43
2023-03-08T03:46:28.632Z,10.40
2023-03-08T03:48:55.344Z,11.73
2023-03-08T03:51:23.316Z,10.97
2023-03-08T03:53:50.079Z,16.03
2023-03-08T03:56:22.172Z,14.23
2023-03-08T03:58:50.003Z,11.43
2023-03-08T04:01:22.375Z,9.07
2023-03-08T04:03:49.429Z,11.77
2023-03-08T04:06:22.123Z,14.20
2023-03-08T04:08:49.261Z,9.73
2023-03-08T04:11:18.571Z,9.17
2023-03-08T04:13:45.328Z,11.63
2023-03-08T04:16:17.534Z,10.50
2023-03-08T04:18:44.578Z,8.77
2023-03-08T04:21:11.831Z,9.10
2023-03-08T04:23:38.511Z,11.70
2023-03-08T04:26:05.921Z,10.60
2023-03-08T04:28:33.873Z,11.03
2023-03-08T04:31:01.320Z,9.87
2023-03-08T04:33:27.937Z,9.77
2023-03-08T04:35:54.661Z,10.30
2023-03-08T04:38:21.275Z,10.60
2023-03-08T04:41:02.501Z,11.30
2023-03-08T04:43:29.397Z,10.17
2023-03-08T04:45:56.170Z,8.67
2023-03-08T04:48:24.773Z,9.70
2023-03-08T04:51:00.305Z,10.50
2023-03-08T04:55:54.128Z,7.33
2023-03-08T04:58:21.814Z,11.53
2023-03-08T05:00:48.688Z,7.97
2023-03-08T05:03:15.411Z,8.87
2023-03-08T05:05:47.100Z,10.10
2023-03-08T05:08:14.196Z,9.77
2023-03-08T05:10:46.598Z,10.23
2023-03-08T05:13:13.258Z,18.77
2023-03-08T05:15:39.865Z,9.70
2023-03-08T05:18:06.455Z,8.00
2023-03-08T05:20:33.126Z,10.13
2023-03-08T05:22:59.730Z,8.33
2023-03-08T05:25:26.440Z,8.10
2023-03-08T05:27:54.011Z,9.07
2023-03-08T05:30:20.709Z,6.90
2023-03-08T05:32:47.473Z,9.03
2023-03-08T05:35:14.247Z,8.87
2023-03-08T05:37:40.954Z,7.53
2023-03-08T05:40:08.264Z,5.43
2023-03-08T05:42:35.053Z,7.67
2023-03-08T05:45:01.933Z,8.10
2023-03-08T05:47:30.529Z,7.90
2023-03-08T05:49:57.414Z,7.83
2023-03-08T05:52:24.125Z,7.07
2023-03-08T05:54:50.909Z,6.77
2023-03-08T05:57:17.621Z,6.33
2023-03-08T05:59:44.330Z,7.63
2023-03-08T06:02:11.005Z,7.87
2023-03-08T06:04:37.741Z,7.37
2023-03-08T06:07:04.594Z,9.17
2023-03-08T06:09:31.358Z,8.27
2023-03-08T06:11:58.096Z,7.83
2023-03-08T06:14:24.806Z,6.90
2023-03-08T06:16:51.550Z,7.57
2023-03-08T06:19:18.234Z,5.97
2023-03-08T06:21:45.005Z,7.30
2023-03-08T06:24:11.644Z,6.83
2023-03-08T06:26:38.346Z,8.23
2023-03-08T06:29:05.071Z,7.10
2023-03-08T06:31:31.805Z,6.53
2023-03-08T06:33:58.495Z,7.07
2023-03-08T06:36:25.189Z,5.30
2023-03-08T06:38:52.022Z,7.63
2023-03-08T06:41:20.279Z,6.43
2023-03-08T06:43:47.132Z,9.73
2023-03-08T06:46:17.092Z,8.93
2023-03-08T06:48:47.311Z,6.80
2023-03-08T06:51:14.244Z,6.00
2023-03-08T06:53:41.359Z,5.50
2023-03-08T06:56:22.447Z,7.33
2023-03-08T06:58:52.223Z,5.20
2023-03-08T07:01:19.219Z,7.47
2023-03-08T07:03:48.009Z,6.33
2023-03-08T07:06:14.903Z,5.83
2023-03-08T07:08:41.813Z,6.50
2023-03-08T07:11:11.453Z,6.60
2023-03-08T07:13:38.477Z,6.03
2023-03-08T07:16:10.022Z,6.93
2023-03-08T07:18:37.154Z,5.83
2023-03-08T07:21:04.484Z,4.80
2023-03-08T07:23:31.472Z,8.13
2023-03-08T07:25:58.213Z,6.33
2023-03-08T07:28:24.995Z,5.20
2023-03-08T07:30:52.928Z,8.40
2023-03-08T07:36:08.076Z,7.63
2023-03-08T07:38:34.700Z,5.57
2023-03-08T07:41:01.289Z,7.40
2023-03-08T07:43:27.922Z,4.97
2023-03-08T07:45:54.543Z,4.80
2023-03-08T07:48:21.130Z,6.10
2023-03-08T07:50:47.716Z,4.90
2023-03-08T07:53:14.331Z,3.90
2023-03-08T07:55:40.940Z,5.93
2023-03-08T07:58:07.554Z,4.77
2023-03-08T08:00:34.160Z,5.27
2023-03-08T08:03:00.798Z,6.63
2023-03-08T08:05:27.546Z,6.93
2023-03-08T08:07:54.250Z,6.53
2023-03-08T08:10:21.001Z,5.63
2023-03-08T08:12:47.638Z,9.30
2023-03-08T08:15:14.460Z,4.90
2023-03-08T08:17:41.123Z,6.50
2023-03-08T08:20:08.273Z,5.97
2023-03-08T08:22:36.452Z,5.13
2023-03-08T08:25:07.264Z,4.17
2023-03-08T08:27:34.742Z,3.70
2023-03-08T08:30:01.921Z,4.80
2023-03-08T08:32:28.689Z,5.57
2023-03-08T08:34:55.309Z,4.10
2023-03-08T08:37:21.962Z,4.63
2023-03-08T08:39:48.555Z,4.73
2023-03-08T08:42:15.177Z,4.50
2023-03-08T08:44:41.953Z,5.13
2023-03-08T08:47:08.810Z,4.57
2023-03-08T08:49:35.459Z,3.43
2023-03-08T08:52:02.231Z,3.23
2023-03-08T08:54:28.953Z,4.27
2023-03-08T08:56:55.611Z,4.03
2023-03-08T08:59:22.307Z,3.87
2023-03-08T09:01:49.072Z,4.57
2023-03-08T09:04:17.068Z,4.40
2023-03-08T09:06:44.034Z,3.30
2023-03-08T09:09:10.614Z,5.47
2023-03-08T09:11:48.467Z,4.60
2023-03-08T09:14:18.730Z,3.73
2023-03-08T09:16:45.401Z,3.57
2023-03-08T09:19:12.415Z,3.10
2023-03-08T09:21:39.023Z,4.63
2023-03-08T09:24:06.755Z,4.80
2023-03-08T09:26:33.765Z,4.67
2023-03-08T09:29:05.132Z,3.60
2023-03-08T09:31:33.080Z,4.17
2023-03-08T09:34:00.200Z,5.20
2023-03-08T09:36:28.774Z,5.00
2023-03-08T09:38:56.252Z,5.80
2023-03-08T09:41:33.176Z,4.87
2023-03-08T09:44:13.998Z,6.40
2023-03-08T09:46:55.191Z,5.27
2023-03-08T09:49:27.559Z,5.33
2023-03-08T09:52:22.170Z,4.87
2023-03-08T09:54:50.314Z,6.93
2023-03-08T09:57:23.299Z,8.57
2023-03-08T09:59:54.317Z,4.87
2023-03-08T10:02:31.187Z,5.37
2023-03-08T10:05:15.471Z,6.23
2023-03-08T10:08:19.438Z,7.22
2023-03-08T10:11:13.448Z,6.57
2023-03-08T10:13:42.009Z,5.33
2023-03-08T10:16:25.341Z,5.10
2023-03-08T10:19:07.362Z,6.47
2023-03-08T10:21:37.333Z,4.47
2023-03-08T10:24:06.951Z,4.00
2023-03-08T10:26:33.745Z,4.50
2023-03-08T10:29:00.350Z,4.97
2023-03-08T10:31:33.603Z,5.20
2023-03-08T10:34:06.341Z,4.83
2023-03-08T10:36:33.016Z,5.03
2023-03-08T10:39:11.365Z,6.20
2023-03-08T10:41:47.571Z,6.30
2023-03-08T10:44:40.749Z,5.87
2023-03-08T10:47:28.757Z,3.83
2023-03-08T10:50:10.542Z,5.20
2023-03-08T10:52:37.124Z,3.53
2023-03-08T10:55:17.647Z,3.17
2023-03-08T10:57:55.719Z,5.63
2023-03-08T11:00:31.680Z,4.40
2023-03-08T11:03:24.967Z,3.63
2023-03-08T11:06:15.213Z,3.27
2023-03-08T11:08:53.339Z,3.13
2023-03-08T11:11:20.304Z,5.77
2023-03-08T11:13:48.451Z,3.67
2023-03-08T11:16:38.672Z,5.80
2023-03-08T11:19:20.457Z,3.47
2023-03-08T11:22:04.151Z,4.03
2023-03-08T11:24:40.338Z,5.05
2023-03-08T11:27:34.928Z,5.30
2023-03-08T11:30:05.448Z,3.42
2023-03-08T11:32:50.929Z,4.20
2023-03-08T11:35:42.463Z,3.27
2023-03-08T11:38:22.745Z,4.63
2023-03-08T11:40:52.181Z,3.70
2023-03-08T11:43:37.538Z,4.20
2023-03-08T11:46:22.392Z,4.20
2023-03-08T11:49:12.404Z,3.53
2023-03-08T11:51:51.581Z,5.27
2023-03-08T11:54:51.187Z,4.80
2023-03-08T11:57:18.192Z,3.50
2023-03-08T11:59:50.541Z,4.17
2023-03-08T12:02:27.098Z,3.40
2023-03-08T12:05:05.745Z,5.43
2023-03-08T12:07:52.821Z,4.43
2023-03-08T12:10:24.684Z,5.33
2023-03-08T12:12:55.803Z,3.03
2023-03-08T12:15:33.322Z,4.57
2023-03-08T12:18:05.604Z,3.67
2023-03-08T12:20:36.644Z,4.33
2023-03-08T12:23:16.260Z,4.10
2023-03-08T12:25:45.497Z,2.80
2023-03-08T12:28:24.750Z,3.93
2023-03-08T12:31:27.480Z,4.33
2023-03-08T12:33:56.501Z,3.80
2023-03-08T12:36:37.008Z,4.47
2023-03-08T12:39:10.202Z,3.83
2023-03-08T12:41:37.023Z,3.00
2023-03-08T12:44:23.867Z,6.77
2023-03-08T12:47:03.235Z,4.37
2023-03-08T12:49:38.860Z,5.50
2023-03-08T12:52:28.480Z,3.77
2023-03-08T12:55:01.633Z,5.83
2023-03-08T12:57:44.961Z,4.80
2023-03-08T13:00:20.868Z,8.03
2023-03-08T13:03:25.991Z,5.53
2023-03-08T13:05:52.800Z,5.22
2023-03-08T13:08:34.998Z,3.90
2023-03-08T13:11:04.565Z,3.60
2023-03-08T13:14:01.621Z,4.93
2023-03-08T13:16:38.973Z,3.30
2023-03-08T13:19:14.880Z,3.43
2023-03-08T13:22:14.622Z,10.63
2023-03-08T13:24:48.635Z,6.93
2023-03-08T13:27:35.291Z,5.70
2023-03-08T13:30:23.847Z,8.23
2023-03-08T13:32:50.836Z,5.40
2023-03-08T13:35:18.692Z,4.27
2023-03-08T13:37:56.042Z,4.30
2023-03-08T13:40:23.747Z,6.10
2023-03-08T13:42:55.311Z,4.13
2023-03-08T13:45:22.018Z,3.97
2023-03-08T13:47:48.748Z,3.87
2023-03-08T13:50:23.065Z,3.13
2023-03-08T13:55:20.718Z,3.73
2023-03-08T13:57:52.001Z,5.67
2023-03-08T14:00:31.832Z,3.37
2023-03-08T14:03:06.505Z,3.70
2023-03-08T14:05:44.049Z,3.67
2023-03-08T14:08:26.025Z,4.10
2023-03-08T14:11:03.026Z,3.50
2023-03-08T14:13:35.020Z,5.70
2023-03-08T14:16:09.097Z,3.60
2023-03-08T14:18:37.907Z,4.65
2023-03-08T14:21:14.871Z,2.63
2023-03-08T14:23:47.008Z,4.07
2023-03-08T14:26:32.372Z,3.83
2023-03-08T14:29:21.488Z,5.20
2023-03-08T14:32:01.883Z,3.37
2023-03-08T14:34:33.959Z,3.50
2023-03-08T14:37:04.467Z,3.13
2023-03-08T14:39:32.887Z,4.10
2023-03-08T14:42:09.376Z,3.93
2023-03-08T14:44:36.275Z,4.13
2023-03-08T14:47:35.216Z,3.20
2023-03-08T14:50:20.724Z,3.70
2023-03-08T14:52:49.334Z,6.03
2023-03-08T14:55:23.484Z,3.73
2023-03-08T14:58:02.191Z,4.22
2023-03-08T15:00:29.843Z,3.40
2023-03-08T15:03:00.478Z,3.23
2023-03-08T15:05:29.482Z,3.63
2023-03-08T15:07:57.448Z,3.20
2023-03-08T15:10:27.928Z,3.70
2023-03-08T15:12:55.159Z,3.67
2023-03-08T15:15:21.767Z,4.73
2023-03-08T15:17:48.587Z,4.03
2023-03-08T15:20:15.944Z,3.37
2023-03-08T15:22:48.427Z,4.33
2023-03-08T15:25:26.619Z,2.43
2023-03-08T15:27:53.344Z,2.30
2023-03-08T15:30:22.778Z,3.03
2023-03-08T15:32:49.517Z,2.60
2023-03-08T15:35:16.644Z,3.30
2023-03-08T15:37:43.882Z,2.90
2023-03-08T15:40:13.994Z,3.67
2023-03-08T15:42:40.929Z,3.30
2023-03-08T15:45:08.394Z,2.97
2023-03-08T15:47:35.056Z,3.27
2023-03-08T15:50:01.936Z,3.30
2023-03-08T15:52:30.857Z,2.80
2023-03-08T15:54:57.765Z,3.63
2023-03-08T15:57:24.512Z,3.50
2023-03-08T15:59:51.747Z,3.90
2023-03-08T16:02:20.384Z,5.60
2023-03-08T16:04:48.182Z,3.13
2023-03-08T16:07:19.235Z,2.97
2023-03-08T16:09:46.749Z,4.40
2023-03-08T16:12:14.557Z,2.33
2023-03-08T16:14:47.088Z,3.97
2023-03-08T16:17:16.551Z,2.63
2023-03-08T16:19:43.699Z,2.47
2023-03-08T16:22:10.722Z,2.93
2023-03-08T16:24:37.373Z,2.03
2023-03-08T16:27:04.526Z,2.80
2023-03-08T16:29:32.355Z,2.10
2023-03-08T16:31:59.476Z,2.87
2023-03-08T16:34:27.186Z,3.10
2023-03-08T16:36:54.232Z,3.73
2023-03-08T16:39:21.046Z,2.17
2023-03-08T16:41:47.734Z,2.10
2023-03-08T16:44:22.655Z,2.43
2023-03-08T16:46:49.503Z,2.83
2023-03-08T16:49:17.137Z,3.23
2023-03-08T16:51:44.058Z,2.93
2023-03-08T16:54:13.915Z,1.90
2023-03-08T16:56:40.828Z,1.90
2023-03-08T16:59:07.425Z,1.73
2023-03-08T17:01:34.602Z,1.87
2023-03-08T17:04:01.341Z,3.00
2023-03-08T17:06:29.612Z,3.17
2023-03-08T17:08:57.652Z,2.33
2023-03-08T17:11:26.945Z,2.93
2023-03-08T17:13:57.926Z,4.27
2023-03-08T17:16:27.043Z,2.17
2023-03-08T17:18:54.481Z,1.60
2023-03-08T17:21:22.347Z,1.73
2023-03-08T17:23:50.578Z,2.97
2023-03-08T17:26:18.790Z,2.53
2023-03-08T17:28:47.024Z,2.40
2023-03-08T17:31:16.112Z,2.70
2023-03-08T17:33:45.956Z,3.50
2023-03-08T17:36:13.817Z,2.67
2023-03-08T17:38:40.570Z,3.50
2023-03-08T17:41:12.808Z,6.93
2023-03-08T17:43:41.262Z,5.37
2023-03-08T17:46:28.431Z,6.00
2023-03-08T17:48:55.547Z,8.83
2023-03-08T17:51:24.837Z,7.37
2023-03-08T17:53:51.952Z,7.90
2023-03-08T17:56:21.483Z,7.53
2023-03-08T17:58:49.172Z,6.53
2023-03-08T18:01:18.540Z,6.23
2023-03-08T18:03:45.314Z,8.83
2023-03-08T18:06:24.965Z,9.03
2023-03-08T18:08:51.880Z,8.47
2023-03-08T18:11:18.538Z,8.17
2023-03-08T18:13:45.148Z,8.47
2023-03-08T18:16:11.837Z,8.20
2023-03-08T18:18:38.641Z,8.27
2023-03-08T18:21:13.471Z,8.23
2023-03-08T18:23:42.710Z,7.03
2023-03-08T18:26:11.160Z,9.10
2023-03-08T18:28:37.756Z,8.33
2023-03-08T18:31:13.062Z,7.13
2023-03-08T18:33:39.767Z,7.53
2023-03-08T18:36:06.861Z,6.97
2023-03-08T18:38:34.184Z,7.00
2023-03-08T18:41:26.081Z,6.00
2023-03-08T18:43:57.119Z,6.57
2023-03-08T18:46:28.717Z,6.23
2023-03-08T18:48:57.324Z,5.50
2023-03-08T18:51:24.245Z,5.57
2023-03-08T18:53:50.881Z,5.77
2023-03-08T18:56:17.556Z,6.53
2023-03-08T18:58:44.157Z,5.10
2023-03-08T19:01:16.207Z,7.50
2023-03-08T19:03:44.172Z,7.63
2023-03-08T19:06:11.923Z,6.10
2023-03-08T19:08:38.830Z,8.13
2023-03-08T19:11:12.231Z,5.83
2023-03-08T19:13:38.848Z,8.45
2023-03-08T19:16:07.240Z,5.57
2023-03-08T19:18:33.973Z,5.93
2023-03-08T19:21:00.602Z,6.57
2023-03-08T19:23:27.261Z,5.37
2023-03-08T19:26:12.534Z,6.17
2023-03-08T19:28:39.169Z,8.23
2023-03-08T19:31:05.915Z,7.23
2023-03-08T19:33:32.567Z,4.50
2023-03-08T19:35:59.488Z,8.27
2023-03-08T19:38:26.150Z,6.67
2023-03-08T19:40:52.768Z,7.20
2023-03-08T19:43:19.356Z,6.33
2023-03-08T19:45:49.663Z,6.57
2023-03-08T19:48:16.432Z,6.60
2023-03-08T19:50:46.592Z,9.20
2023-03-08T19:53:13.341Z,6.97
2023-03-08T19:55:50.823Z,8.47
2023-03-08T19:58:17.962Z,5.83
2023-03-08T20:00:44.800Z,7.17
2023-03-08T20:03:12.322Z,7.00
2023-03-08T20:05:41.726Z,6.47
2023-03-08T20:08:08.538Z,7.03
2023-03-08T20:10:37.519Z,8.17
2023-03-08T20:13:04.420Z,6.30
2023-03-08T20:15:32.101Z,5.67
2023-03-08T20:17:58.824Z,7.40
2023-03-08T20:20:25.907Z,6.27
2023-03-08T20:22:52.531Z,6.13
2023-03-08T20:25:19.145Z,5.23
2023-03-08T20:27:45.770Z,6.47
2023-03-08T20:30:13.401Z,8.00
2023-03-08T20:32:40.058Z,6.90
2023-03-08T20:35:07.670Z,6.93
2023-03-08T20:37:34.547Z,7.37
2023-03-08T20:40:04.340Z,6.97
2023-03-08T20:42:31.389Z,6.90
2023-03-08T20:44:58.024Z,7.20
2023-03-08T20:47:24.762Z,7.93
2023-03-08T20:49:51.459Z,7.57
2023-03-08T20:52:18.124Z,6.87
2023-03-08T20:54:44.856Z,8.10
2023-03-08T20:57:11.628Z,6.80
2023-03-08T20:59:38.207Z,8.00
2023-03-08T21:02:04.910Z,7.27
2023-03-08T21:04:31.504Z,7.97
2023-03-08T21:06:58.161Z,7.40
2023-03-08T21:09:24.806Z,8.80
2023-03-08T21:11:52.422Z,7.43
2023-03-08T21:14:19.088Z,9.37
2023-03-08T21:16:45.778Z,8.00
2023-03-08T21:19:12.478Z,8.53
2023-03-08T21:21:41.277Z,8.47
2023-03-08T21:24:11.484Z,11.13
2023-03-08T21:26:38.234Z,8.17
2023-03-08T21:29:07.236Z,9.03
2023-03-08T21:31:37.706Z,8.63
2023-03-08T21:34:05.937Z,8.37
2023-03-08T21:36:33.083Z,8.87
2023-03-08T21:38:59.799Z,10.77
2023-03-08T21:41:28.671Z,8.87
2023-03-08T21:43:55.428Z,8.47
2023-03-08T21:46:23.426Z,8.77
2023-03-08T21:48:50.428Z,11.00
2023-03-08T21:51:20.013Z,8.17
2023-03-08T21:53:48.968Z,9.87
2023-03-08T21:56:17.001Z,8.97
2023-03-08T21:58:44.331Z,9.47
2023-03-08T22:01:22.944Z,10.43
2023-03-08T22:03:52.692Z,9.10
2023-03-08T22:06:19.316Z,10.27
2023-03-08T22:08:47.887Z,9.47
2023-03-08T22:11:15.015Z,9.57
2023-03-08T22:13:44.375Z,9.63
2023-03-08T22:16:13.297Z,10.73
2023-03-08T22:18:39.921Z,8.90
2023-03-08T22:21:06.542Z,8.43
2023-03-08T22:23:33.856Z,10.70
2023-03-08T22:26:00.581Z,9.77
2023-03-08T22:28:27.334Z,11.87
2023-03-08T22:30:53.930Z,12.30
2023-03-08T22:33:20.652Z,10.50
2023-03-08T22:35:47.951Z,13.17
2023-03-08T22:38:15.171Z,13.33
2023-03-08T22:40:42.298Z,10.70
2023-03-08T22:43:09.733Z,12.87
2023-03-08T22:45:36.490Z,12.87
2023-03-08T22:48:04.499Z,13.10
2023-03-08T22:50:31.206Z,8.87
2023-03-08T22:52:59.910Z,11.47
2023-03-08T22:55:26.499Z,9.07
2023-03-08T22:57:53.196Z,10.90
2023-03-08T23:00:20.651Z,10.80
2023-03-08T23:02:48.187Z,10.07
2023-03-08T23:05:17.274Z,14.37
2023-03-08T23:07:44.058Z,15.50
2023-03-08T23:10:11.956Z,13.83
2023-03-08T23:12:41.672Z,14.87
2023-03-08T23:15:09.412Z,16.50
2023-03-08T23:17:38.356Z,18.37
2023-03-08T23:20:05.712Z,18.20
2023-03-08T23:22:32.796Z,13.20
2023-03-08T23:24:59.510Z,15.50
2023-03-08T23:27:26.153Z,15.90
2023-03-08T23:29:52.988Z,15.43
2023-03-08T23:32:20.097Z,15.83
2023-03-08T23:34:46.735Z,14.93
2023-03-08T23:37:13.511Z,19.23
2023-03-08T23:39:40.124Z,15.80
2023-03-08T23:42:06.948Z,18.23
2023-03-08T23:44:33.821Z,15.77
2023-03-08T23:47:00.433Z,20.37
2023-03-08T23:49:29.645Z,20.50
2023-03-08T23:51:56.268Z,17.60
2023-03-08T23:54:23.028Z,18.13
2023-03-08T23:56:51.977Z,18.50
2023-03-08T23:59:22.910Z,18.97
